Time;durP1;ratioP1;P1;durP2;ratioP2;P2;SDS_P1;SDS_P2;PMS_P1;PMS_P2;Temp;Humidity;BMP_temperature;BMP_pressure;BME280_temperature;BME280_humidity;BME280_pressure;Samples;Min_cycle;Max_cycle;Signal;HPM_P1;HPM_P2
2021/05/13 00:00:28;;;;;;;0.10;0.10;;;14.20;99.90;;;;;;6243820;23;20000;-76
2021/05/13 00:02:54;;;;;;;0.10;0.10;;;14.20;99.90;;;;;;6243457;23;20005;-76
2021/05/13 00:05:20;;;;;;;0.00;0.00;;;14.20;99.90;;;;;;6243761;22;20027;-76
2021/05/13 00:07:46;;;;;;;0.10;0.10;;;14.20;99.90;;;;;;6244353;22;20004;-76
2021/05/13 00:10:16;;;;;;;0.10;0.10;;;14.20;99.90;;;;;;6216304;23;20041;-76
2021/05/13 00:15:29;;;;;;;0.10;0.10;;;14.20;99.90;;;;;;6244398;23;20006;-76
2021/05/13 00:17:56;;;;;;;0.10;0.10;;;14.10;99.90;;;;;;6243270;23;20074;-76
2021/05/13 00:20:34;;;;;;;0.05;0.05;;;14.10;99.90;;;;;;6216718;23;20050;-76
2021/05/13 00:23:00;;;;;;;0.10;0.10;;;14.10;99.90;;;;;;6242997;23;20012;-75
2021/05/13 00:25:27;;;;;;;0.10;0.10;;;14.10;99.90;;;;;;6243499;23;20003;-77
2021/05/13 00:27:53;;;;;;;0.00;0.00;;;14.10;99.90;;;;;;6243390;23;20001;-76
2021/05/13 00:30:20;;;;;;;0.10;0.10;;;14.10;99.90;;;;;;6216457;23;20050;-76
2021/05/13 00:32:46;;;;;;;0.10;0.10;;;14.10;99.90;;;;;;6217112;23;20008;-76
2021/05/13 00:35:14;;;;;;;0.10;0.10;;;14.10;99.90;;;;;;6215895;23;20446;-76
2021/05/13 00:37:41;;;;;;;0.00;0.00;;;14.10;99.90;;;;;;6243882;22;20004;-77
2021/05/13 00:40:08;;;;;;;0.10;0.10;;;14.10;99.90;;;;;;6243201;23;19996;-76
2021/05/13 00:42:34;;;;;;;0.10;0.10;;;14.00;99.90;;;;;;6243596;23;20273;-77
2021/05/13 00:45:00;;;;;;;0.10;0.10;;;14.00;99.90;;;;;;6242884;22;20446;-76
2021/05/13 00:47:28;;;;;;;0.10;0.10;;;14.00;99.90;;;;;;6243723;23;20378;-76
2021/05/13 00:49:54;;;;;;;0.10;0.10;;;14.00;99.90;;;;;;6242858;23;20001;-76
2021/05/13 00:52:22;;;;;;;0.10;0.10;;;14.00;99.90;;;;;;6243598;22;20014;-77
2021/05/13 00:54:49;;;;;;;0.10;0.10;;;14.00;99.90;;;;;;6243038;22;20061;-76
2021/05/13 00:57:15;;;;;;;0.10;0.10;;;14.00;99.90;;;;;;6243455;23;20011;-77
2021/05/13 00:59:45;;;;;;;0.00;0.00;;;14.00;99.90;;;;;;6242917;22;20485;-77
2021/05/13 01:02:13;;;;;;;0.05;0.05;;;14.00;99.90;;;;;;6243036;23;20081;-77
2021/05/13 01:04:39;;;;;;;0.10;0.10;;;14.00;99.90;;;;;;6242795;23;20011;-76
2021/05/13 01:07:05;;;;;;;0.10;0.10;;;14.00;99.90;;;;;;6241287;22;20034;-76
2021/05/13 01:09:32;;;;;;;0.10;0.10;;;14.00;99.90;;;;;;6241493;23;20004;-76
2021/05/13 01:12:07;;;;;;;;;;;14.00;99.90;;;;;;6243037;23;19999;-74
2021/05/13 01:19:33;;;;;;;0.10;0.10;;;14.10;99.90;;;;;;6242169;23;20030;-75
2021/05/13 01:21:59;;;;;;;0.00;0.00;;;14.10;99.90;;;;;;6215442;23;20000;-75
2021/05/13 01:24:26;;;;;;;0.10;0.10;;;14.10;99.90;;;;;;6214662;23;20386;-74
2021/05/13 01:26:52;;;;;;;0.00;0.00;;;14.10;99.90;;;;;;6242414;22;20062;-74
2021/05/13 01:29:20;;;;;;;0.10;0.10;;;14.20;99.90;;;;;;6215845;23;20008;-75
2021/05/13 01:31:47;;;;;;;0.00;0.00;;;14.20;99.90;;;;;;6217128;23;20003;-74
2021/05/13 01:34:13;;;;;;;0.10;0.10;;;14.20;99.90;;;;;;6243799;23;20000;-75
2021/05/13 01:36:39;;;;;;;0.00;0.00;;;14.20;99.90;;;;;;6245433;23;20030;-74
2021/05/13 01:39:07;;;;;;;0.00;0.00;;;14.20;99.90;;;;;;6244062;22;20075;-75
2021/05/13 01:41:33;;;;;;;0.10;0.10;;;14.10;99.90;;;;;;6244249;23;20074;-74
2021/05/13 01:43:58;;;;;;;0.10;0.10;;;14.20;99.90;;;;;;6243294;23;20016;-74
2021/05/13 01:46:25;;;;;;;0.10;0.10;;;14.10;99.90;;;;;;6243965;23;20502;-75
2021/05/13 01:48:51;;;;;;;0.10;0.10;;;14.10;99.90;;;;;;6243795;22;20004;-74
2021/05/13 01:51:17;;;;;;;0.00;0.00;;;14.20;99.90;;;;;;6244192;23;20075;-74
2021/05/13 01:53:43;;;;;;;0.10;0.10;;;14.20;99.90;;;;;;6243910;23;20056;-75
2021/05/13 01:56:10;;;;;;;0.10;0.10;;;14.10;99.90;;;;;;6244135;22;20000;-74
2021/05/13 01:58:36;;;;;;;0.10;0.10;;;14.10;99.90;;;;;;6244023;23;20082;-75
2021/05/13 02:01:02;;;;;;;0.10;0.10;;;14.10;99.90;;;;;;6243777;22;20150;-75
2021/05/13 02:03:28;;;;;;;0.10;0.10;;;14.10;99.90;;;;;;6243629;23;20008;-74
2021/05/13 02:05:54;;;;;;;0.00;0.00;;;14.10;99.90;;;;;;6244291;23;20000;-75
2021/05/13 02:08:21;;;;;;;0.03;0.03;;;14.10;99.90;;;;;;6244433;23;20485;-74
2021/05/13 02:10:47;;;;;;;0.10;0.10;;;14.20;99.90;;;;;;6245063;22;20008;-74
2021/05/13 02:13:13;;;;;;;0.10;0.10;;;14.20;99.90;;;;;;6244269;22;20035;-74
2021/05/13 02:15:40;;;;;;;0.00;0.00;;;14.20;99.90;;;;;;6218152;23;20087;-74
2021/05/13 02:18:06;;;;;;;0.00;0.00;;;14.20;99.90;;;;;;6244444;22;20266;-74
2021/05/13 02:20:32;;;;;;;0.10;0.10;;;14.20;99.90;;;;;;6243911;23;20438;-74
2021/05/13 02:22:59;;;;;;;0.10;0.10;;;14.20;99.90;;;;;;6243269;23;20015;-75
2021/05/13 02:25:31;;;;;;;0.10;0.10;;;14.10;99.90;;;;;;6243808;23;20089;-75
2021/05/13 02:28:03;;;;;;;0.10;0.10;;;14.10;99.90;;;;;;6216924;23;20004;-77
2021/05/13 02:30:29;;;;;;;0.10;0.10;;;14.10;99.90;;;;;;6244800;22;20070;-77
2021/05/13 02:32:54;;;;;;;0.10;0.10;;;14.00;99.90;;;;;;6244386;22;20011;-77
2021/05/13 02:35:21;;;;;;;0.10;0.10;;;14.00;99.90;;;;;;6244345;23;20483;-77
2021/05/13 02:37:47;;;;;;;0.00;0.00;;;13.90;99.90;;;;;;6218157;23;20431;-77
2021/05/13 02:40:15;;;;;;;0.00;0.00;;;13.90;99.90;;;;;;6241555;23;20003;-78
2021/05/13 02:42:41;;;;;;;0.08;0.08;;;13.90;99.90;;;;;;6241492;23;20023;-77
2021/05/13 02:45:09;;;;;;;0.00;0.00;;;13.90;99.90;;;;;;6214198;23;20370;-78
2021/05/13 02:47:35;;;;;;;0.10;0.10;;;13.90;99.90;;;;;;6241843;22;20058;-77
2021/05/13 02:50:00;;;;;;;0.00;0.00;;;13.90;99.90;;;;;;6240982;22;20004;-77
2021/05/13 02:52:26;;;;;;;0.10;0.10;;;13.90;99.90;;;;;;6241651;22;20313;-77
2021/05/13 02:54:52;;;;;;;0.10;0.10;;;13.90;99.90;;;;;;6214523;23;20004;-77
2021/05/13 02:57:18;;;;;;;0.00;0.00;;;13.90;99.90;;;;;;6243720;23;20046;-78
2021/05/13 02:59:46;;;;;;;0.00;0.00;;;13.90;99.90;;;;;;6243206;22;20119;-78
2021/05/13 03:02:13;;;;;;;0.10;0.10;;;13.80;99.90;;;;;;6242790;22;20047;-78
2021/05/13 03:04:40;;;;;;;0.10;0.10;;;13.80;99.90;;;;;;6243109;23;20004;-78
2021/05/13 03:07:06;;;;;;;0.10;0.10;;;13.80;99.90;;;;;;6243517;22;20004;-78
2021/05/13 03:09:34;;;;;;;0.10;0.10;;;13.80;99.90;;;;;;6243072;23;20004;-77
2021/05/13 03:12:00;;;;;;;0.08;0.08;;;13.90;99.90;;;;;;6243243;22;20370;-77
2021/05/13 03:14:26;;;;;;;0.10;0.10;;;13.80;99.90;;;;;;6243058;23;19992;-77
2021/05/13 03:16:51;;;;;;;0.10;0.10;;;13.90;99.90;;;;;;6216543;23;20004;-75
2021/05/13 03:19:24;;;;;;;0.10;0.10;;;13.80;99.90;;;;;;6242870;22;20696;-75
2021/05/13 03:21:53;;;;;;;0.10;0.10;;;13.80;99.90;;;;;;6242916;22;20011;-77
2021/05/13 03:27:11;;;;;;;0.10;0.10;;;13.80;99.90;;;;;;6243571;23;20011;-75
2021/05/13 03:29:37;;;;;;;0.10;0.10;;;13.80;99.90;;;;;;6215864;23;20111;-74
2021/05/13 03:32:03;;;;;;;0.10;0.10;;;13.80;99.90;;;;;;6242887;22;20360;-75
2021/05/13 03:34:29;;;;;;;0.10;0.10;;;13.80;99.90;;;;;;6215414;23;20020;-74
2021/05/13 03:36:54;;;;;;;0.10;0.10;;;13.70;99.90;;;;;;6243374;23;19999;-75
2021/05/13 03:39:20;;;;;;;0.10;0.10;;;13.70;99.90;;;;;;6242542;23;19996;-75
2021/05/13 03:41:46;;;;;;;0.10;0.10;;;13.70;99.90;;;;;;6243255;23;20020;-77
2021/05/13 03:44:11;;;;;;;0.10;0.10;;;13.80;99.90;;;;;;6242524;22;20043;-77
2021/05/13 03:46:37;;;;;;;0.10;0.10;;;13.80;99.90;;;;;;6215766;23;20000;-77
2021/05/13 03:49:03;;;;;;;0.10;0.10;;;13.80;99.90;;;;;;6215701;22;20019;-78
2021/05/13 03:51:29;;;;;;;0.03;0.03;;;13.80;99.90;;;;;;6242689;23;20000;-78
2021/05/13 03:53:55;;;;;;;0.10;0.10;;;13.80;99.90;;;;;;6242145;22;20432;-78
2021/05/13 03:56:21;;;;;;;0.00;0.00;;;13.80;99.90;;;;;;6243183;23;20058;-78
2021/05/13 03:58:52;;;;;;;0.10;0.10;;;13.80;99.90;;;;;;6242491;23;20004;-78
2021/05/13 04:01:31;;;;;;;0.00;0.00;;;13.90;99.90;;;;;;6240905;22;20000;-78
2021/05/13 04:03:57;;;;;;;0.10;0.10;;;13.90;99.90;;;;;;6214372;23;20062;-78
2021/05/13 04:06:23;;;;;;;0.10;0.10;;;13.90;99.90;;;;;;6215117;23;20086;-78
2021/05/13 04:08:50;;;;;;;0.05;0.05;;;13.90;99.90;;;;;;6241125;23;20032;-78
2021/05/13 04:11:17;;;;;;;0.00;0.00;;;13.90;99.90;;;;;;6241706;22;20004;-77
2021/05/13 04:13:44;;;;;;;0.00;0.00;;;14.00;99.90;;;;;;6241519;23;20099;-77
2021/05/13 04:16:10;;;;;;;0.10;0.10;;;14.00;99.90;;;;;;6241742;22;20004;-77
2021/05/13 04:18:36;;;;;;;0.10;0.10;;;14.00;99.90;;;;;;6242612;23;20000;-77
2021/05/13 04:21:02;;;;;;;0.10;0.10;;;14.10;99.90;;;;;;6241894;23;20004;-76
2021/05/13 04:23:27;;;;;;;0.08;0.08;;;14.10;99.90;;;;;;6238806;23;20051;-77
2021/05/13 04:25:53;;;;;;;0.10;0.10;;;14.10;99.90;;;;;;6237426;23;20008;-80
2021/05/13 04:28:19;;;;;;;0.10;0.10;;;14.10;99.90;;;;;;6238935;22;20004;-79
2021/05/13 04:30:44;;;;;;;0.00;0.00;;;14.10;99.90;;;;;;6212349;23;20014;-80
2021/05/13 04:33:12;;;;;;;0.00;0.00;;;14.20;99.90;;;;;;6239008;23;19996;-78
2021/05/13 04:35:38;;;;;;;0.10;0.10;;;14.30;99.90;;;;;;6213465;23;20008;-78
2021/05/13 04:38:04;;;;;;;0.10;0.10;;;14.30;99.90;;;;;;6239685;22;20001;-78
2021/05/13 04:40:30;;;;;;;0.10;0.10;;;14.40;99.90;;;;;;6240233;23;20434;-80
2021/05/13 04:42:56;;;;;;;0.00;0.00;;;14.40;99.90;;;;;;6213444;23;20008;-78
2021/05/13 04:45:21;;;;;;;0.10;0.10;;;14.40;99.90;;;;;;6241592;22;20011;-78
2021/05/13 04:50:25;;;;;;;0.10;0.10;;;14.40;99.90;;;;;;6243672;22;20011;-78
2021/05/13 04:52:50;;;;;;;0.10;0.10;;;14.50;99.90;;;;;;6240951;22;20055;-76
2021/05/13 04:55:16;;;;;;;0.10;0.10;;;14.50;99.90;;;;;;6242205;22;20316;-76
2021/05/13 04:57:42;;;;;;;0.08;0.08;;;14.60;99.90;;;;;;6215559;23;20003;-75
2021/05/13 05:00:11;;;;;;;0.10;0.10;;;14.70;99.90;;;;;;6240509;22;20054;-75
2021/05/13 05:02:37;;;;;;;0.10;0.10;;;14.70;99.90;;;;;;6214346;22;20011;-79
2021/05/13 05:05:04;;;;;;;0.00;0.00;;;14.70;99.90;;;;;;6241339;23;20000;-76
2021/05/13 05:07:30;;;;;;;0.10;0.10;;;14.80;99.90;;;;;;6242334;22;20011;-75
2021/05/13 05:09:56;;;;;;;0.10;0.10;;;14.70;99.90;;;;;;6241585;23;20236;-75
2021/05/13 05:12:22;;;;;;;0.05;0.05;;;14.70;99.90;;;;;;6214374;23;20004;-75
2021/05/13 05:14:48;;;;;;;0.10;0.10;;;14.60;99.90;;;;;;6212509;23;20636;-76
2021/05/13 05:17:13;;;;;;;0.10;0.10;;;14.50;99.90;;;;;;6241931;22;19992;-76
2021/05/13 05:19:39;;;;;;;0.10;0.10;;;14.60;99.90;;;;;;6241601;23;20043;-77
2021/05/13 05:22:07;;;;;;;0.10;0.10;;;14.60;99.90;;;;;;6242472;23;20006;-77
2021/05/13 05:24:34;;;;;;;0.10;0.10;;;14.60;99.90;;;;;;6241540;22;20020;-76
2021/05/13 05:27:01;;;;;;;0.10;0.10;;;14.80;99.90;;;;;;6241878;23;20020;-76
2021/05/13 05:29:26;;;;;;;0.10;0.10;;;14.70;99.90;;;;;;6241643;23;20004;-76
2021/05/13 05:31:52;;;;;;;0.00;0.00;;;14.80;99.90;;;;;;6241008;23;20007;-78
2021/05/13 05:34:18;;;;;;;0.10;0.10;;;14.80;99.90;;;;;;6241522;23;20011;-77
2021/05/13 05:36:44;;;;;;;0.00;0.00;;;14.90;99.90;;;;;;6241855;23;20106;-75
2021/05/13 05:39:09;;;;;;;0.10;0.10;;;14.90;99.90;;;;;;6241231;22;20130;-77
2021/05/13 05:41:35;;;;;;;0.10;0.10;;;14.80;99.90;;;;;;6241581;23;19996;-76
2021/05/13 05:44:01;;;;;;;0.10;0.10;;;14.80;99.90;;;;;;6241398;23;20040;-76
2021/05/13 05:46:26;;;;;;;0.10;0.10;;;14.80;99.90;;;;;;6241839;22;20339;-76
2021/05/13 05:48:53;;;;;;;0.10;0.10;;;14.80;99.90;;;;;;6239693;22;20010;-75
2021/05/13 05:51:19;;;;;;;0.10;0.10;;;14.80;99.90;;;;;;6242337;22;19997;-77
2021/05/13 05:53:45;;;;;;;0.10;0.10;;;14.80;99.90;;;;;;6241640;22;20004;-76
2021/05/13 05:56:10;;;;;;;0.10;0.10;;;14.80;99.90;;;;;;6214667;23;20008;-76
2021/05/13 05:58:36;;;;;;;0.10;0.10;;;14.90;99.90;;;;;;6214713;23;20138;-76
2021/05/13 06:01:02;;;;;;;0.00;0.00;;;14.90;99.90;;;;;;6241860;22;20441;-75
2021/05/13 06:03:28;;;;;;;0.00;0.00;;;15.00;99.90;;;;;;6241866;22;20012;-82
2021/05/13 06:05:53;;;;;;;0.10;0.10;;;15.10;99.90;;;;;;6241636;23;19992;-83
2021/05/13 06:08:19;;;;;;;0.10;0.10;;;15.10;99.90;;;;;;6241762;23;19996;-75
2021/05/13 06:10:45;;;;;;;0.00;0.00;;;15.10;99.90;;;;;;6241528;22;20000;-78
2021/05/13 06:13:11;;;;;;;0.10;0.10;;;15.10;99.90;;;;;;6241150;22;20453;-79
2021/05/13 06:15:37;;;;;;;0.10;0.10;;;15.00;99.90;;;;;;6241505;23;20019;-79
2021/05/13 06:18:04;;;;;;;0.10;0.10;;;15.00;99.90;;;;;;6242022;22;20008;-77
2021/05/13 06:20:32;;;;;;;0.10;0.10;;;15.10;99.90;;;;;;6243129;22;19996;-78
2021/05/13 06:22:57;;;;;;;0.10;0.10;;;15.20;99.90;;;;;;6243203;23;20016;-79
2021/05/13 06:25:25;;;;;;;0.10;0.10;;;15.30;99.90;;;;;;6243611;22;20008;-78
2021/05/13 06:27:51;;;;;;;0.10;0.10;;;15.40;99.90;;;;;;6243300;23;20004;-76
2021/05/13 06:30:18;;;;;;;0.10;0.10;;;15.50;99.90;;;;;;6243786;22;20083;-79
2021/05/13 06:32:45;;;;;;;0.10;0.10;;;15.60;99.90;;;;;;6243153;22;20004;-79
2021/05/13 06:35:12;;;;;;;0.00;0.00;;;15.70;99.90;;;;;;6242885;22;20032;-78
2021/05/13 06:37:38;;;;;;;0.10;0.10;;;15.70;99.90;;;;;;6244082;23;20008;-77
2021/05/13 06:40:05;;;;;;;0.05;0.05;;;15.60;99.90;;;;;;6242784;22;20097;-78
2021/05/13 06:42:32;;;;;;;0.10;0.10;;;15.50;99.90;;;;;;6243350;22;20509;-78
2021/05/13 06:44:57;;;;;;;0.10;0.10;;;15.40;99.90;;;;;;6243198;23;20004;-77
2021/05/13 06:47:23;;;;;;;0.10;0.10;;;15.40;99.90;;;;;;6243479;23;20054;-78
2021/05/13 06:49:49;;;;;;;0.10;0.10;;;15.30;99.90;;;;;;6243107;23;20004;-78
2021/05/13 06:52:16;;;;;;;0.10;0.10;;;15.30;99.90;;;;;;6243733;23;19996;-78
2021/05/13 06:54:42;;;;;;;0.10;0.10;;;15.40;99.90;;;;;;6216178;23;20680;-77
2021/05/13 06:57:08;;;;;;;0.10;0.10;;;15.40;99.90;;;;;;6243923;23;20458;-77
2021/05/13 06:59:34;;;;;;;0.10;0.10;;;15.40;99.90;;;;;;6242971;22;19996;-76
2021/05/13 07:02:00;;;;;;;0.10;0.10;;;15.50;99.90;;;;;;6243270;23;20004;-77
2021/05/13 07:04:28;;;;;;;0.10;0.10;;;15.40;99.90;;;;;;6216165;23;20016;-78
2021/05/13 07:06:54;;;;;;;0.10;0.10;;;15.40;99.90;;;;;;6243642;23;20004;-77
2021/05/13 07:09:20;;;;;;;0.10;0.10;;;15.50;99.90;;;;;;6242662;22;20008;-76
2021/05/13 07:11:45;;;;;;;0.00;0.00;;;15.60;99.90;;;;;;6243470;22;20011;-76
2021/05/13 07:14:11;;;;;;;0.10;0.10;;;15.70;99.90;;;;;;6242586;22;19996;-77
2021/05/13 07:16:37;;;;;;;0.10;0.10;;;15.80;99.90;;;;;;6243333;23;20018;-77
2021/05/13 07:19:04;;;;;;;0.10;0.10;;;15.90;99.90;;;;;;6242897;23;19996;-77
2021/05/13 07:21:30;;;;;;;0.10;0.10;;;16.10;99.90;;;;;;6243331;22;20000;-77
2021/05/13 07:23:56;;;;;;;0.07;0.07;;;16.20;99.90;;;;;;6242864;22;20042;-77
2021/05/13 07:26:22;;;;;;;0.10;0.10;;;16.10;99.90;;;;;;6243514;22;20506;-77
2021/05/13 07:28:48;;;;;;;0.10;0.10;;;15.80;99.90;;;;;;6242690;22;20008;-76
2021/05/13 07:31:14;;;;;;;0.00;0.00;;;15.30;99.90;;;;;;6243077;23;20369;-76
2021/05/13 07:33:40;;;;;;;0.10;0.10;;;15.00;99.90;;;;;;6215976;23;20097;-77
2021/05/13 07:36:07;;;;;;;0.10;0.10;;;14.50;99.90;;;;;;6243157;23;20423;-77
2021/05/13 07:38:34;;;;;;;0.10;0.10;;;14.20;99.90;;;;;;6242803;22;20004;-77
2021/05/13 07:41:00;;;;;;;0.10;0.10;;;14.10;99.90;;;;;;6243161;22;20035;-77
2021/05/13 07:43:28;;;;;;;0.10;0.10;;;14.10;99.90;;;;;;6242513;22;20038;-76
2021/05/13 07:45:54;;;;;;;0.10;0.10;;;14.20;99.90;;;;;;6242646;23;20399;-79
2021/05/13 07:48:20;;;;;;;0.10;0.10;;;14.40;99.90;;;;;;6242778;23;20023;-77
2021/05/13 07:50:46;;;;;;;0.08;0.08;;;14.60;99.90;;;;;;6242953;22;20000;-77
2021/05/13 07:53:12;;;;;;;0.00;0.00;;;15.00;99.90;;;;;;6215832;23;20011;-76
2021/05/13 07:55:38;;;;;;;0.05;0.05;;;15.40;99.90;;;;;;6242828;22;20004;-76
2021/05/13 07:58:04;;;;;;;0.10;0.10;;;15.90;99.90;;;;;;6242478;23;20022;-77
2021/05/13 08:00:30;;;;;;;0.10;0.10;;;16.20;99.90;;;;;;6216047;23;20008;-77
2021/05/13 08:02:56;;;;;;;0.10;0.10;;;16.60;99.90;;;;;;6242376;22;20494;-77
2021/05/13 08:05:22;;;;;;;0.10;0.10;;;16.80;99.90;;;;;;6242679;22;20003;-77
2021/05/13 08:07:47;;;;;;;0.10;0.10;;;17.00;99.90;;;;;;6243090;22;20057;-76
2021/05/13 08:10:13;;;;;;;0.10;0.10;;;17.10;99.90;;;;;;6215549;23;20534;-77
2021/05/13 08:12:40;;;;;;;0.10;0.10;;;17.40;99.90;;;;;;6242758;23;20009;-77
2021/05/13 08:15:09;;;;;;;0.00;0.00;;;17.80;99.90;;;;;;6242485;22;20004;-77
2021/05/13 08:17:35;;;;;;;0.10;0.10;;;17.90;99.90;;;;;;6242459;22;20239;-76
2021/05/13 08:20:01;;;;;;;0.10;0.10;;;18.00;99.90;;;;;;6215289;23;20015;-76
2021/05/13 08:22:27;;;;;;;0.10;0.10;;;18.20;99.90;;;;;;6242673;22;19997;-77
2021/05/13 08:24:53;;;;;;;0.10;0.10;;;18.00;99.90;;;;;;6242084;22;20011;-76
2021/05/13 08:27:18;;;;;;;0.10;0.10;;;18.10;99.90;;;;;;6242790;22;19996;-76
2021/05/13 08:29:44;;;;;;;0.10;0.10;;;18.40;99.90;;;;;;6242283;23;20008;-77
2021/05/13 08:32:10;;;;;;;0.10;0.10;;;18.70;99.90;;;;;;6242282;22;20091;-77
2021/05/13 08:34:35;;;;;;;0.10;0.10;;;18.80;99.90;;;;;;6242244;23;19996;-76
2021/05/13 08:37:02;;;;;;;0.10;0.10;;;19.00;99.90;;;;;;6242652;23;20015;-77
2021/05/13 08:39:28;;;;;;;0.10;0.10;;;19.10;99.90;;;;;;6242020;23;20031;-78
2021/05/13 08:41:53;;;;;;;0.10;0.10;;;19.40;99.90;;;;;;6242503;23;20058;-77
2021/05/13 08:44:19;;;;;;;0.10;0.10;;;19.40;99.90;;;;;;6241472;23;20012;-77
2021/05/13 08:46:47;;;;;;;0.10;0.10;;;19.50;99.90;;;;;;6242176;22;20006;-78
2021/05/13 08:49:12;;;;;;;0.10;0.10;;;19.60;99.90;;;;;;6241855;23;20008;-78
2021/05/13 08:51:38;;;;;;;0.10;0.10;;;19.40;99.90;;;;;;6215325;23;20126;-77
2021/05/13 08:54:05;;;;;;;0.10;0.10;;;19.50;99.90;;;;;;6241960;23;20004;-77
2021/05/13 08:56:32;;;;;;;0.10;0.10;;;19.80;99.90;;;;;;6242540;23;19992;-78
2021/05/13 08:59:03;;;;;;;0.10;0.10;;;20.00;99.90;;;;;;6242088;22;20023;-78
2021/05/13 09:01:30;;;;;;;0.10;0.10;;;19.90;99.90;;;;;;6242201;23;20007;-78
2021/05/13 09:03:58;;;;;;;0.10;0.10;;;20.00;99.90;;;;;;6214850;23;20414;-78
2021/05/13 09:06:42;;;;;;;0.10;0.10;;;19.90;97.80;;;;;;6242573;23;19996;-78
2021/05/13 09:09:13;;;;;;;0.10;0.10;;;20.20;97.00;;;;;;6215055;23;20008;-77
2021/05/13 09:11:55;;;;;;;0.10;0.10;;;20.20;95.60;;;;;;6242278;23;20011;-78
2021/05/13 09:14:22;;;;;;;0.10;0.10;;;20.60;98.10;;;;;;6241577;22;20008;-78
2021/05/13 09:16:49;;;;;;;0.10;0.10;;;20.50;97.80;;;;;;6215432;23;20012;-78
2021/05/13 09:19:37;;;;;;;0.10;0.10;;;20.50;91.80;;;;;;6242152;22;20009;-78
2021/05/13 09:22:08;;;;;;;;;;;20.40;93.80;;;;;;6242856;22;20000;-77
2021/05/13 09:24:41;;;;;;;0.10;0.10;;;20.70;93.00;;;;;;6214713;23;19926;-79
2021/05/13 09:27:28;;;;;;;0.10;0.10;;;21.00;93.00;;;;;;6242255;22;20326;-77
2021/05/13 09:30:11;;;;;;;0.10;0.10;;;21.20;94.90;;;;;;6216295;22;20099;-78
2021/05/13 09:32:37;;;;;;;0.10;0.10;;;21.60;94.90;;;;;;6215313;23;20004;-78
2021/05/13 09:35:21;;;;;;;0.10;0.10;;;21.90;92.70;;;;;;6241770;23;20014;-78
2021/05/13 09:37:54;;;;;;;0.10;0.10;;;22.00;88.60;;;;;;6242611;22;20031;-78
2021/05/13 09:40:39;;;;;;;0.10;0.10;;;22.00;75.70;;;;;;6242245;23;20046;-78
2021/05/13 09:43:22;;;;;;;0.10;0.10;;;22.20;86.70;;;;;;6241884;22;20549;-77
2021/05/13 09:45:50;;;;;;;0.10;0.10;;;22.30;79.70;;;;;;6242340;22;20440;-77
2021/05/13 09:48:38;;;;;;;0.10;0.10;;;22.70;81.40;;;;;;6242167;23;20493;-78
2021/05/13 09:51:25;;;;;;;0.10;0.10;;;22.80;77.70;;;;;;6216924;23;20003;-78
2021/05/13 09:54:12;;;;;;;0.10;0.10;;;22.90;83.40;;;;;;6244180;23;20004;-78
2021/05/13 09:56:46;;;;;;;0.10;0.10;;;23.10;76.60;;;;;;6244650;23;20735;-78
2021/05/13 09:59:46;;;;;;;0.10;0.10;;;22.80;70.40;;;;;;6244191;22;20151;-78
2021/05/13 10:02:12;;;;;;;0.10;0.10;;;22.90;70.70;;;;;;6191189;23;20005;-78
2021/05/13 10:04:38;;;;;;;0.10;0.10;;;22.70;70.80;;;;;;6243506;22;20012;-78
2021/05/13 10:07:04;;;;;;;0.10;0.10;;;22.60;70.20;;;;;;6243989;23;20004;-78
2021/05/13 10:09:31;;;;;;;0.10;0.10;;;22.50;71.40;;;;;;6243195;23;20191;-78
2021/05/13 10:11:59;;;;;;;0.10;0.10;;;22.70;74.50;;;;;;6216930;23;20034;-78
2021/05/13 10:14:27;;;;;;;0.10;0.10;;;22.90;75.70;;;;;;6243202;23;20439;-78
2021/05/13 10:16:57;;;;;;;0.10;0.10;;;23.10;74.20;;;;;;6217014;23;20004;-77
2021/05/13 10:19:40;;;;;;;0.10;0.10;;;23.20;72.40;;;;;;6216601;23;20466;-78
2021/05/13 10:22:07;;;;;;;0.10;0.10;;;23.10;71.70;;;;;;6244016;23;20008;-79
2021/05/13 10:24:33;;;;;;;0.10;0.10;;;23.50;73.10;;;;;;6243007;22;20016;-77
2021/05/13 10:27:13;;;;;;;0.10;0.10;;;23.60;68.20;;;;;;6243881;23;19996;-77
2021/05/13 10:29:41;;;;;;;0.10;0.10;;;23.40;65.20;;;;;;6243191;22;20168;-78
2021/05/13 10:32:13;;;;;;;0.10;0.10;;;23.20;68.50;;;;;;6243424;23;20003;-78
2021/05/13 10:34:42;;;;;;;0.10;0.10;;;22.90;71.60;;;;;;6243179;22;19996;-77
2021/05/13 10:37:13;;;;;;;0.10;0.10;;;22.80;69.70;;;;;;6243916;23;20441;-79
2021/05/13 10:42:46;;;;;;;0.10;0.10;;;23.00;69.50;;;;;;6243492;23;20019;-77
2021/05/13 10:45:36;;;;;;;0.10;0.10;;;23.20;69.70;;;;;;6215977;23;20058;-77
2021/05/13 10:48:31;;;;;;;0.10;0.10;;;23.40;66.50;;;;;;6224422;23;20004;-77
2021/05/13 10:51:03;;;;;;;0.10;0.10;;;22.80;68.20;;;;;;6243626;22;20446;-78
2021/05/13 10:53:35;;;;;;;0.10;0.10;;;22.50;70.00;;;;;;6243328;22;20049;-78
2021/05/13 10:56:37;;;;;;;0.10;0.10;;;22.20;71.50;;;;;;6243680;23;20445;-78
2021/05/13 10:59:08;;;;;;;0.10;0.10;;;21.00;75.60;;;;;;6217980;23;20015;-78
2021/05/13 11:01:51;;;;;;;0.10;0.10;;;20.40;78.20;;;;;;6216370;23;20086;-78
2021/05/13 11:04:23;;;;;;;0.10;0.10;;;20.50;77.80;;;;;;6242653;23;20050;-77
2021/05/13 11:06:59;;;;;;;0.10;0.10;;;20.60;78.90;;;;;;6216788;22;20023;-77
2021/05/13 11:12:26;;;;;;;0.10;0.10;;;20.30;80.40;;;;;;6243145;23;20551;-77
2021/05/13 11:15:37;;;;;;;0.10;0.10;;;20.50;81.10;;;;;;6242366;22;20004;-77
2021/05/13 11:20:30;;;;;;;0.10;0.10;;;21.20;79.90;;;;;;6243095;23;20342;-77
2021/05/13 11:23:03;;;;;;;0.10;0.10;;;20.90;79.60;;;;;;6215938;23;20012;-77
2021/05/13 11:25:51;;;;;;;0.10;0.10;;;20.60;85.10;;;;;;6216378;23;20000;-77
2021/05/13 11:28:40;;;;;;;0.10;0.10;;;20.60;85.70;;;;;;6243186;23;20007;-78
2021/05/13 11:31:08;;;;;;;0.10;0.10;;;20.70;79.40;;;;;;6243134;22;20011;-78
2021/05/13 11:33:54;;;;;;;0.10;0.10;;;20.70;87.40;;;;;;6242841;22;20000;-77
2021/05/13 11:36:37;;;;;;;0.10;0.10;;;21.10;86.00;;;;;;6243110;22;20459;-77
2021/05/13 11:39:13;;;;;;;0.10;0.10;;;21.70;81.00;;;;;;6242689;23;20000;-77
2021/05/13 11:41:46;;;;;;;0.10;0.10;;;21.70;81.90;;;;;;6242845;23;20004;-77
2021/05/13 11:44:13;;;;;;;0.10;0.10;;;22.30;76.70;;;;;;6242423;23;20011;-77
2021/05/13 11:46:39;;;;;;;0.10;0.10;;;22.10;73.50;;;;;;6242737;22;20075;-77
2021/05/13 11:49:07;;;;;;;0.10;0.10;;;22.00;81.60;;;;;;6242712;23;20075;-77
2021/05/13 11:51:34;;;;;;;0.10;0.10;;;22.10;76.50;;;;;;6244196;22;20000;-78
2021/05/13 11:54:02;;;;;;;0.10;0.10;;;22.40;74.10;;;;;;6243499;22;20004;-77
2021/05/13 11:56:30;;;;;;;0.10;0.10;;;22.80;70.90;;;;;;6244233;23;20000;-78
2021/05/13 11:59:00;;;;;;;0.10;0.10;;;22.80;68.40;;;;;;6243128;22;20004;-78
2021/05/13 12:01:34;;;;;;;6.68;6.22;;;22.80;68.60;;;;;;6243512;23;19996;-77
2021/05/13 12:04:06;;;;;;;0.10;0.10;;;22.30;68.00;;;;;;6216423;22;20061;-77
2021/05/13 12:06:57;;;;;;;0.20;0.20;;;22.90;67.80;;;;;;6244219;23;20042;-77
2021/05/13 12:09:24;;;;;;;0.15;0.15;;;24.70;64.90;;;;;;6242681;23;20031;-77
2021/05/13 12:11:51;;;;;;;0.10;0.10;;;27.50;56.80;;;;;;6217160;23;20000;-78
2021/05/13 12:14:27;;;;;;;0.10;0.10;;;29.20;51.40;;;;;;6243256;22;20378;-80
2021/05/13 12:16:59;;;;;;;0.20;0.20;;;31.30;48.60;;;;;;6243749;22;20000;-78
2021/05/13 12:19:27;;;;;;;0.50;0.50;;;33.30;43.10;;;;;;6216466;23;20004;-80
2021/05/13 12:21:55;;;;;;;0.25;0.25;;;35.80;43.50;;;;;;6244149;22;20087;-78
2021/05/13 12:24:29;;;;;;;0.30;0.30;;;37.60;39.80;;;;;;6216284;23;20027;-78
2021/05/13 12:26:55;;;;;;;0.35;0.35;;;36.90;36.10;;;;;;6243865;22;20078;-79
2021/05/13 12:29:21;;;;;;;0.20;0.20;;;39.00;33.00;;;;;;6216293;22;20004;-78
2021/05/13 12:31:47;;;;;;;0.25;0.25;;;40.80;32.50;;;;;;6243463;23;21014;-78
2021/05/13 12:34:34;;;;;;;0.20;0.20;;;42.10;31.80;;;;;;6243300;23;20000;-78
2021/05/13 12:37:02;;;;;;;0.30;0.30;;;40.70;28.80;;;;;;6217029;22;20457;-79
2021/05/13 12:39:33;;;;;;;0.50;0.50;;;38.10;32.60;;;;;;6216353;22;20008;-78
2021/05/13 12:41:59;;;;;;;0.30;0.30;;;36.30;34.90;;;;;;6243743;22;20423;-78
2021/05/13 12:44:32;;;;;;;0.25;0.25;;;33.50;37.50;;;;;;6243151;22;20343;-78
2021/05/13 12:47:03;;;;;;;0.10;0.10;;;32.80;38.70;;;;;;6243513;23;20000;-79
2021/05/13 12:49:30;;;;;;;0.10;0.10;;;30.70;40.90;;;;;;6243253;23;20000;-79
2021/05/13 12:52:03;;;;;;;0.10;0.10;;;28.80;46.00;;;;;;6216791;23;20000;-78
2021/05/13 12:54:31;;;;;;;0.10;0.10;;;27.40;48.50;;;;;;6243052;23;20004;-78
2021/05/13 12:57:19;;;;;;;0.10;0.10;;;26.60;49.70;;;;;;6243665;23;20054;-76
2021/05/13 12:59:51;;;;;;;0.10;0.10;;;25.00;55.40;;;;;;6216310;23;20010;-78
2021/05/13 13:02:25;;;;;;;0.10;0.10;;;22.80;59.90;;;;;;6243229;23;20000;-77
2021/05/13 13:04:54;;;;;;;0.10;0.10;;;21.40;67.30;;;;;;6242740;22;20023;-77
2021/05/13 13:07:32;;;;;;;0.10;0.10;;;20.60;72.30;;;;;;6243665;22;19997;-77
2021/05/13 13:10:18;;;;;;;0.10;0.10;;;20.00;73.80;;;;;;6216143;23;20008;-79
2021/05/13 13:12:43;;;;;;;0.20;0.20;;;19.70;77.40;;;;;;6243262;23;20011;-78
2021/05/13 13:15:12;;;;;;;0.10;0.10;;;19.20;76.80;;;;;;6216097;23;20004;-78
2021/05/13 13:17:39;;;;;;;0.10;0.10;;;18.90;80.00;;;;;;6216741;23;20435;-79